createdAt,value
2018-09-19T00:01:48.569Z,961.13
2018-09-19T00:04:14.877Z,961.13
2018-09-19T00:06:41.197Z,961.14
2018-09-19T00:09:07.509Z,961.10
2018-09-19T00:11:33.865Z,961.12
2018-09-19T00:14:00.171Z,961.04
2018-09-19T00:16:26.485Z,961.03
2018-09-19T00:18:52.796Z,961.11
2018-09-19T00:21:19.106Z,961.09
2018-09-19T00:23:45.419Z,961.19
2018-09-19T00:26:11.788Z,961.15
2018-09-19T00:28:38.106Z,961.15
2018-09-19T00:31:04.425Z,961.15
2018-09-19T00:33:30.735Z,961.13
2018-09-19T00:35:57.058Z,961.17
2018-09-19T00:38:23.373Z,961.16
2018-09-19T00:40:49.707Z,961.12
2018-09-19T00:43:16.034Z,961.21
2018-09-19T00:45:42.341Z,961.13
2018-09-19T00:48:08.658Z,961.17
2018-09-19T00:50:34.981Z,961.13
2018-09-19T00:53:01.346Z,961.16
2018-09-19T00:55:27.638Z,961.12
2018-09-19T00:57:53.951Z,961.16
2018-09-19T01:00:20.273Z,961.13
2018-09-19T01:02:46.585Z,961.08
2018-09-19T01:05:12.938Z,961.11
2018-09-19T01:07:39.253Z,961.07
2018-09-19T01:10:05.565Z,961.09
2018-09-19T01:12:31.872Z,961.02
2018-09-19T01:14:58.194Z,961.07
2018-09-19T01:17:24.532Z,961.04
2018-09-19T01:19:50.864Z,961.08
2018-09-19T01:22:17.209Z,960.98
2018-09-19T01:24:43.538Z,961.04
2018-09-19T01:27:09.850Z,961.08
2018-09-19T01:29:36.172Z,961.07
2018-09-19T01:32:02.487Z,960.97
2018-09-19T01:34:28.801Z,961.03
2018-09-19T01:36:55.116Z,960.97
2018-09-19T01:39:21.470Z,960.95
2018-09-19T01:41:47.783Z,960.97
2018-09-19T01:44:14.118Z,960.96
2018-09-19T01:46:40.422Z,960.92
2018-09-19T01:49:06.732Z,960.98
2018-09-19T01:51:33.092Z,960.99
2018-09-19T01:53:59.452Z,960.91
2018-09-19T01:56:25.742Z,960.90
2018-09-19T01:58:52.055Z,960.93
2018-09-19T02:01:18.366Z,960.91
2018-09-19T02:03:44.686Z,960.92
2018-09-19T02:06:10.997Z,960.96
2018-09-19T02:08:37.313Z,960.88
2018-09-19T02:11:03.627Z,960.87
2018-09-19T02:13:29.944Z,960.91
2018-09-19T02:15:56.258Z,960.91
2018-09-19T02:18:22.575Z,960.98
2018-09-19T02:20:48.884Z,960.98
2018-09-19T02:23:15.196Z,960.91
2018-09-19T02:25:41.507Z,961.04
2018-09-19T02:28:07.825Z,961.02
2018-09-19T02:30:34.146Z,961.04
2018-09-19T02:33:00.448Z,961.01
2018-09-19T02:35:26.851Z,960.94
2018-09-19T02:37:53.163Z,960.93
2018-09-19T02:40:19.473Z,960.94
2018-09-19T02:42:45.786Z,960.91
2018-09-19T02:45:12.098Z,960.90
2018-09-19T02:47:38.414Z,960.98
2018-09-19T02:50:04.734Z,960.99
2018-09-19T02:52:31.091Z,960.95
2018-09-19T02:54:57.400Z,960.97
2018-09-19T02:57:23.769Z,960.97
2018-09-19T02:59:50.119Z,960.99
2018-09-19T03:02:16.482Z,961.00
2018-09-19T03:07:09.097Z,961.00
2018-09-19T03:09:35.407Z,960.99
2018-09-19T03:12:01.721Z,960.95
2018-09-19T03:14:28.085Z,960.95
2018-09-19T03:16:54.397Z,960.94
2018-09-19T03:19:20.699Z,960.97
2018-09-19T03:21:47.010Z,960.95
2018-09-19T03:24:13.322Z,960.97
2018-09-19T03:26:39.632Z,960.97
2018-09-19T03:29:05.945Z,960.93
2018-09-19T03:31:32.271Z,960.98
2018-09-19T03:33:58.591Z,960.96
2018-09-19T03:36:24.910Z,960.93
2018-09-19T03:38:51.214Z,960.93
2018-09-19T03:41:17.547Z,960.96
2018-09-19T03:43:43.858Z,960.94
2018-09-19T03:46:10.175Z,960.97
2018-09-19T03:48:36.484Z,960.95
2018-09-19T03:51:02.811Z,960.92
2018-09-19T03:53:29.117Z,960.99
2018-09-19T03:55:55.426Z,960.98
2018-09-19T03:58:21.836Z,960.96
2018-09-19T04:00:48.053Z,960.98
2018-09-19T04:03:14.370Z,960.93
2018-09-19T04:05:40.688Z,960.95
2018-09-19T04:08:06.999Z,960.96
2018-09-19T04:10:33.346Z,961.02
2018-09-19T04:12:59.665Z,961.03
2018-09-19T04:15:25.976Z,960.99
2018-09-19T04:17:52.327Z,960.97
2018-09-19T04:20:18.608Z,960.98
2018-09-19T04:22:44.968Z,960.97
2018-09-19T04:25:11.281Z,961.00
2018-09-19T04:27:37.591Z,960.98
2018-09-19T04:30:04.930Z,961.02
2018-09-19T04:32:31.247Z,961.03
2018-09-19T04:34:57.567Z,961.12
2018-09-19T04:37:23.878Z,961.15
2018-09-19T04:39:50.190Z,961.09
2018-09-19T04:42:16.506Z,961.13
2018-09-19T04:44:42.822Z,961.08
2018-09-19T04:47:09.131Z,961.13
2018-09-19T04:49:35.448Z,961.10
2018-09-19T04:52:01.766Z,961.09
2018-09-19T04:54:28.074Z,961.10
2018-09-19T04:56:54.434Z,961.11
2018-09-19T04:59:20.781Z,961.15
2018-09-19T05:01:47.096Z,961.16
2018-09-19T05:04:13.455Z,961.15
2018-09-19T05:06:39.772Z,961.22
2018-09-19T05:09:06.090Z,961.24
2018-09-19T05:11:32.532Z,961.19
2018-09-19T05:13:58.796Z,961.24
2018-09-19T05:16:25.119Z,961.19
2018-09-19T05:18:51.428Z,961.14
2018-09-19T05:21:17.772Z,961.16
2018-09-19T05:23:44.094Z,961.15
2018-09-19T05:26:10.412Z,961.15
2018-09-19T05:28:36.736Z,961.13
2018-09-19T05:31:03.045Z,961.12
2018-09-19T05:33:29.352Z,961.18
2018-09-19T05:35:55.689Z,961.15
2018-09-19T05:38:21.991Z,961.13
2018-09-19T05:40:48.310Z,961.17
2018-09-19T05:43:14.726Z,961.21
2018-09-19T05:45:41.044Z,961.25
2018-09-19T05:48:07.369Z,961.20
2018-09-19T05:50:33.678Z,961.24
2018-09-19T05:52:59.993Z,961.27
2018-09-19T05:55:26.315Z,961.21
2018-09-19T05:57:52.629Z,961.28
2018-09-19T06:00:18.946Z,961.23
2018-09-19T06:02:45.266Z,961.32
2018-09-19T06:05:11.586Z,961.30
2018-09-19T06:07:37.903Z,961.31
2018-09-19T06:10:04.220Z,961.34
2018-09-19T06:12:30.541Z,961.33
2018-09-19T06:14:56.853Z,961.40
2018-09-19T06:17:23.166Z,961.34
2018-09-19T06:19:49.489Z,961.38
2018-09-19T06:22:15.815Z,961.38
2018-09-19T06:24:42.138Z,961.34
2018-09-19T06:27:08.526Z,961.40
2018-09-19T06:29:34.806Z,961.36
2018-09-19T06:32:01.129Z,961.43
2018-09-19T06:34:27.450Z,961.36
2018-09-19T06:36:53.821Z,961.35
2018-09-19T06:39:20.060Z,961.37
2018-09-19T06:41:46.376Z,961.40
2018-09-19T06:44:12.687Z,961.37
2018-09-19T06:46:39.000Z,961.31
2018-09-19T06:49:05.322Z,961.35
2018-09-19T06:51:31.641Z,961.35
2018-09-19T06:53:57.956Z,961.38
2018-09-19T06:56:24.277Z,961.28
2018-09-19T06:58:50.593Z,961.27
2018-09-19T07:01:16.907Z,961.39
2018-09-19T07:03:43.216Z,961.29
2018-09-19T07:06:09.577Z,961.34
2018-09-19T07:08:35.883Z,961.33
2018-09-19T07:11:02.195Z,961.35
2018-09-19T07:13:28.506Z,961.34
2018-09-19T07:15:54.837Z,961.28
2018-09-19T07:18:21.191Z,961.35
2018-09-19T07:20:47.499Z,961.38
2018-09-19T07:23:13.821Z,961.36
2018-09-19T07:25:40.135Z,961.35
2018-09-19T07:28:06.448Z,961.36
2018-09-19T07:30:32.768Z,961.44
2018-09-19T07:32:59.083Z,961.45
2018-09-19T07:35:25.404Z,961.37
2018-09-19T07:37:51.725Z,961.44
2018-09-19T07:40:18.111Z,961.36
2018-09-19T07:42:44.356Z,961.41
2018-09-19T07:45:10.668Z,961.37
2018-09-19T07:47:36.979Z,961.39
2018-09-19T07:50:03.286Z,961.31
2018-09-19T07:52:29.642Z,961.32
2018-09-19T07:54:55.949Z,961.32
2018-09-19T07:57:22.268Z,961.31
2018-09-19T07:59:48.584Z,961.26
2018-09-19T08:02:14.907Z,961.27
2018-09-19T08:04:41.238Z,961.24
2018-09-19T08:07:07.545Z,961.24
2018-09-19T08:09:33.859Z,961.21
2018-09-19T08:12:00.176Z,961.23
2018-09-19T08:14:26.491Z,961.22
2018-09-19T08:16:52.831Z,961.20
2018-09-19T08:19:19.126Z,961.19
2018-09-19T08:21:45.445Z,961.20
2018-09-19T08:24:11.806Z,961.18
2018-09-19T08:26:38.117Z,961.15
2018-09-19T08:29:04.476Z,961.14
2018-09-19T08:31:30.845Z,961.05
2018-09-19T08:33:57.161Z,961.05
2018-09-19T08:36:23.475Z,961.02
2018-09-19T08:38:49.804Z,961.01
2018-09-19T08:41:16.117Z,960.98
2018-09-19T08:43:42.446Z,961.05
2018-09-19T08:46:08.760Z,961.04
2018-09-19T08:48:35.097Z,960.95
2018-09-19T08:51:01.441Z,960.94
2018-09-19T08:53:27.797Z,960.93
2018-09-19T08:55:54.125Z,960.83
2018-09-19T08:58:22.289Z,960.84
2018-09-19T09:00:46.967Z,960.78
2018-09-19T09:03:13.327Z,960.82
2018-09-19T09:05:39.691Z,960.79
2018-09-19T09:08:06.012Z,960.72
2018-09-19T09:10:32.324Z,960.73
2018-09-19T09:12:58.633Z,960.73
2018-09-19T09:15:24.970Z,960.70
2018-09-19T09:17:51.301Z,960.71
2018-09-19T09:20:17.619Z,960.68
2018-09-19T09:22:43.934Z,960.66
2018-09-19T09:25:10.352Z,960.61
2018-09-19T09:27:36.688Z,960.66
2018-09-19T09:30:03.026Z,960.61
2018-09-19T09:32:29.355Z,960.49
2018-09-19T09:34:55.669Z,960.61
2018-09-19T09:37:22.009Z,960.55
2018-09-19T09:39:48.330Z,960.53
2018-09-19T09:42:14.669Z,960.52
2018-09-19T09:44:40.996Z,960.44
2018-09-19T09:47:07.338Z,960.44
2018-09-19T09:49:33.654Z,960.43
2018-09-19T09:51:59.989Z,960.44
2018-09-19T09:54:26.343Z,960.47
2018-09-19T09:56:52.716Z,960.29
2018-09-19T09:59:19.077Z,960.24
2018-09-19T10:01:45.382Z,960.28
2018-09-19T10:04:11.721Z,960.31
2018-09-19T10:06:38.034Z,960.34
2018-09-19T10:09:04.759Z,960.27
2018-09-19T10:11:31.096Z,960.26
2018-09-19T10:13:57.424Z,960.18
2018-09-19T10:16:23.757Z,960.22
2018-09-19T10:18:50.067Z,960.16
2018-09-19T10:21:16.406Z,960.11
2018-09-19T10:23:42.723Z,960.12
2018-09-19T10:26:09.055Z,960.04
2018-09-19T10:28:35.366Z,960.05
2018-09-19T10:31:01.701Z,960.01
2018-09-19T10:33:28.020Z,960.03
2018-09-19T10:35:54.376Z,960.16
2018-09-19T10:38:20.682Z,960.14
2018-09-19T10:40:47.121Z,959.99
2018-09-19T10:43:13.441Z,959.95
2018-09-19T10:45:39.807Z,959.84
2018-09-19T10:48:06.120Z,959.90
2018-09-19T10:50:32.437Z,959.77
2018-09-19T10:52:58.757Z,959.78
2018-09-19T10:55:25.135Z,959.79
2018-09-19T10:57:51.447Z,959.79
2018-09-19T11:00:17.766Z,959.74
2018-09-19T11:02:44.088Z,959.69
2018-09-19T11:05:10.408Z,959.58
2018-09-19T11:07:36.736Z,959.57
2018-09-19T11:10:03.078Z,959.57
2018-09-19T11:12:29.420Z,959.54
2018-09-19T11:14:55.728Z,959.60
2018-09-19T11:17:22.044Z,959.49
2018-09-19T11:19:48.352Z,959.46
2018-09-19T11:22:14.690Z,959.47
2018-09-19T11:24:41.007Z,959.42
2018-09-19T11:27:07.325Z,959.35
2018-09-19T11:29:33.645Z,959.38
2018-09-19T11:31:59.956Z,959.33
2018-09-19T11:34:26.333Z,959.45
2018-09-19T11:36:52.659Z,959.35
2018-09-19T11:39:19.021Z,959.31
2018-09-19T11:41:45.328Z,959.23
2018-09-19T11:44:11.701Z,959.21
2018-09-19T11:46:38.049Z,959.39
2018-09-19T11:49:04.381Z,959.18
2018-09-19T11:51:30.717Z,959.19
2018-09-19T11:53:57.033Z,959.16
2018-09-19T11:56:23.383Z,959.17
2018-09-19T11:58:49.717Z,959.11
2018-09-19T12:01:16.058Z,959.05
2018-09-19T12:03:42.373Z,959.04
2018-09-19T12:06:08.722Z,959.11
2018-09-19T12:08:35.057Z,959.08
2018-09-19T12:11:01.392Z,958.98
2018-09-19T12:13:27.704Z,959.00
2018-09-19T12:15:54.012Z,958.94
2018-09-19T12:18:20.365Z,958.89
2018-09-19T12:20:46.688Z,958.91
2018-09-19T12:23:13.009Z,958.88
2018-09-19T12:25:39.331Z,958.87
2018-09-19T12:28:05.666Z,958.74
2018-09-19T12:30:31.975Z,958.75
2018-09-19T12:33:00.248Z,958.74
2018-09-19T12:35:26.571Z,958.67
2018-09-19T12:37:52.894Z,958.64
2018-09-19T12:40:19.228Z,958.57
2018-09-19T12:42:45.538Z,958.62
2018-09-19T12:45:11.852Z,958.55
2018-09-19T12:47:38.177Z,958.58
2018-09-19T12:50:04.495Z,958.65
2018-09-19T12:52:30.832Z,958.62
2018-09-19T12:54:57.186Z,958.64
2018-09-19T12:57:23.505Z,958.70
2018-09-19T12:59:49.824Z,958.58
2018-09-19T13:02:16.144Z,958.67
2018-09-19T13:04:42.508Z,958.59
2018-09-19T13:07:08.815Z,958.56
2018-09-19T13:09:35.153Z,958.52
2018-09-19T13:12:01.471Z,958.58
2018-09-19T13:14:27.786Z,958.46
2018-09-19T13:16:54.100Z,958.44
2018-09-19T13:19:20.408Z,958.41
2018-09-19T13:21:46.722Z,958.48
2018-09-19T13:24:13.034Z,958.31
2018-09-19T13:26:39.358Z,958.37
2018-09-19T13:29:05.688Z,958.32
2018-09-19T13:31:32.033Z,958.34
2018-09-19T13:33:58.365Z,958.37
2018-09-19T13:36:24.676Z,958.22
2018-09-19T13:38:52.341Z,958.17
2018-09-19T13:41:17.309Z,958.29
2018-09-19T13:43:43.626Z,958.24
2018-09-19T13:46:09.958Z,958.29
2018-09-19T13:48:36.289Z,958.20
2018-09-19T13:51:02.601Z,958.20
2018-09-19T13:53:28.916Z,958.20
2018-09-19T13:55:55.249Z,958.20
2018-09-19T13:58:21.580Z,958.13
2018-09-19T14:00:47.891Z,958.17
2018-09-19T14:03:14.205Z,958.18
2018-09-19T14:05:40.547Z,958.16
2018-09-19T14:08:06.872Z,958.25
2018-09-19T14:10:33.185Z,958.19
2018-09-19T14:12:59.521Z,958.09
2018-09-19T14:15:25.857Z,958.26
2018-09-19T14:17:52.210Z,958.14
2018-09-19T14:20:18.535Z,958.17
2018-09-19T14:22:44.857Z,958.14
2018-09-19T14:25:11.172Z,958.18
2018-09-19T14:27:37.504Z,958.16
2018-09-19T14:30:04.009Z,958.13
2018-09-19T14:32:30.320Z,958.11
2018-09-19T14:34:56.654Z,958.06
2018-09-19T14:37:23.051Z,958.07
2018-09-19T14:39:49.364Z,958.07
2018-09-19T14:42:15.680Z,958.08
2018-09-19T14:44:42.000Z,958.07
2018-09-19T14:47:08.347Z,958.05
2018-09-19T14:49:34.681Z,958.02
2018-09-19T14:52:01.017Z,958.06
2018-09-19T14:54:27.395Z,958.05
2018-09-19T14:56:53.705Z,958.02
2018-09-19T14:59:20.031Z,958.02
2018-09-19T15:01:46.364Z,958.00
2018-09-19T15:04:12.680Z,958.03
2018-09-19T15:06:39.059Z,957.94
2018-09-19T15:09:05.392Z,958.01
2018-09-19T15:11:31.719Z,958.08
2018-09-19T15:13:58.056Z,958.07
2018-09-19T15:16:24.366Z,958.18
2018-09-19T15:18:50.697Z,958.09
2018-09-19T15:21:17.009Z,958.17
2018-09-19T15:23:43.335Z,958.11
2018-09-19T15:26:09.647Z,958.18
2018-09-19T15:28:36.059Z,958.18
2018-09-19T15:31:02.447Z,958.21
2018-09-19T15:33:28.809Z,958.15
2018-09-19T15:35:55.176Z,958.21
2018-09-19T15:38:21.496Z,958.21
2018-09-19T15:40:47.765Z,958.17
2018-09-19T15:43:14.080Z,958.25
2018-09-19T15:45:40.394Z,958.32
2018-09-19T15:48:06.764Z,958.28
2018-09-19T15:50:33.099Z,958.30
2018-09-19T15:52:59.410Z,958.27
2018-09-19T15:55:25.805Z,958.26
2018-09-19T15:57:52.125Z,958.35
2018-09-19T16:00:19.755Z,958.33
2018-09-19T16:02:46.089Z,958.33
2018-09-19T16:05:12.426Z,958.36
2018-09-19T16:07:38.737Z,958.34
2018-09-19T16:10:05.054Z,958.42
2018-09-19T16:12:31.386Z,958.39
2018-09-19T16:14:57.751Z,958.43
2018-09-19T16:17:24.062Z,958.47
2018-09-19T16:19:50.392Z,958.54
2018-09-19T16:22:16.703Z,958.49
2018-09-19T16:24:43.036Z,958.57
2018-09-19T16:27:09.369Z,958.60
2018-09-19T16:29:35.688Z,958.63
2018-09-19T16:32:02.033Z,958.57
2018-09-19T16:34:28.366Z,958.60
2018-09-19T16:36:54.678Z,958.61
2018-09-19T16:39:20.993Z,958.67
2018-09-19T16:41:47.329Z,958.73
2018-09-19T16:44:13.641Z,958.77
2018-09-19T16:46:39.955Z,958.78
2018-09-19T16:49:06.288Z,958.78
2018-09-19T16:51:32.625Z,958.83
2018-09-19T16:53:58.976Z,958.88
2018-09-19T16:56:25.300Z,958.89
2018-09-19T16:58:51.661Z,958.92
2018-09-19T17:01:17.971Z,958.94
2018-09-19T17:03:44.280Z,959.03
2018-09-19T17:06:10.660Z,959.10
2018-09-19T17:08:36.994Z,959.08
2018-09-19T17:11:03.344Z,959.14
2018-09-19T17:13:29.677Z,959.19
2018-09-19T17:15:55.998Z,959.21
2018-09-19T17:18:22.331Z,959.26
2018-09-19T17:20:48.651Z,959.22
2018-09-19T17:23:14.963Z,959.28
2018-09-19T17:25:41.323Z,959.30
2018-09-19T17:28:07.576Z,959.36
2018-09-19T17:30:33.923Z,959.41
2018-09-19T17:33:00.286Z,959.37
2018-09-19T17:35:26.601Z,959.41
2018-09-19T17:37:52.916Z,959.45
2018-09-19T17:40:19.238Z,959.49
2018-09-19T17:42:45.554Z,959.56
2018-09-19T17:45:11.873Z,959.53
2018-09-19T17:47:38.193Z,959.57
2018-09-19T17:50:04.519Z,959.59
2018-09-19T17:52:30.824Z,959.65
2018-09-19T17:54:57.139Z,959.71
2018-09-19T17:57:23.454Z,959.65
2018-09-19T17:59:49.766Z,959.71
2018-09-19T18:02:16.087Z,959.74
2018-09-19T18:04:42.402Z,959.77
2018-09-19T18:07:08.725Z,959.75
2018-09-19T18:09:35.037Z,959.81
2018-09-19T18:12:01.357Z,959.77
2018-09-19T18:14:27.674Z,959.80
2018-09-19T18:16:53.999Z,959.82
2018-09-19T18:19:20.333Z,959.90
2018-09-19T18:21:46.640Z,959.96
2018-09-19T18:24:12.954Z,959.94
2018-09-19T18:26:39.271Z,959.91
2018-09-19T18:29:05.594Z,959.90
2018-09-19T18:31:31.916Z,959.91
2018-09-19T18:33:58.239Z,959.89
2018-09-19T18:36:24.551Z,959.92
2018-09-19T18:38:50.868Z,959.93
2018-09-19T18:41:17.197Z,959.95
2018-09-19T18:43:43.518Z,959.99
2018-09-19T18:46:09.829Z,960.09
2018-09-19T18:48:36.144Z,960.05
2018-09-19T18:51:02.504Z,960.08
2018-09-19T18:53:28.815Z,960.12
2018-09-19T18:55:55.127Z,960.17
2018-09-19T18:58:21.459Z,960.14
2018-09-19T19:00:47.781Z,960.13
2018-09-19T19:03:14.088Z,960.18
2018-09-19T19:05:40.401Z,960.16
2018-09-19T19:08:06.713Z,960.18
2018-09-19T19:10:33.027Z,960.27
2018-09-19T19:12:59.343Z,960.23
2018-09-19T19:15:25.666Z,960.30
2018-09-19T19:17:51.985Z,960.27
2018-09-19T19:20:18.310Z,960.23
2018-09-19T19:22:44.632Z,960.31
2018-09-19T19:25:11.978Z,960.24
2018-09-19T19:27:38.292Z,960.22
2018-09-19T19:30:04.647Z,960.31
2018-09-19T19:32:30.957Z,960.26
2018-09-19T19:34:57.320Z,960.18
2018-09-19T19:37:23.669Z,960.26
2018-09-19T19:39:50.037Z,960.16
2018-09-19T19:42:16.345Z,960.23
2018-09-19T19:44:42.691Z,960.18
2018-09-19T19:47:08.981Z,960.19
2018-09-19T19:49:35.300Z,960.24
2018-09-19T19:52:01.615Z,960.26
2018-09-19T19:54:27.937Z,960.25
2018-09-19T19:56:54.304Z,960.33
2018-09-19T19:59:20.684Z,960.25
2018-09-19T20:01:46.940Z,960.17
2018-09-19T20:04:13.252Z,960.18
2018-09-19T20:06:39.558Z,960.17
2018-09-19T20:09:05.868Z,960.19
2018-09-19T20:11:32.176Z,960.16
2018-09-19T20:13:58.499Z,960.25
2018-09-19T20:16:24.901Z,960.27
2018-09-19T20:18:51.173Z,960.22
2018-09-19T20:21:17.484Z,960.23
2018-09-19T20:23:43.795Z,960.23
2018-09-19T20:26:10.146Z,960.13
2018-09-19T20:28:36.444Z,960.16
2018-09-19T20:31:02.802Z,960.15
2018-09-19T20:33:29.120Z,960.15
2018-09-19T20:35:55.448Z,960.15
2018-09-19T20:38:21.760Z,960.14
2018-09-19T20:40:48.112Z,960.10
2018-09-19T20:43:14.441Z,960.14
2018-09-19T20:45:40.774Z,960.16
2018-09-19T20:48:07.113Z,960.17
2018-09-19T20:50:33.448Z,960.10
2018-09-19T20:52:59.822Z,960.14
2018-09-19T20:55:26.202Z,960.19
2018-09-19T20:57:52.527Z,960.13
2018-09-19T21:00:18.837Z,960.12
2018-09-19T21:02:45.176Z,960.14
2018-09-19T21:05:11.513Z,960.07
2018-09-19T21:07:37.867Z,960.10
2018-09-19T21:10:04.177Z,960.10
2018-09-19T21:12:30.511Z,960.11
2018-09-19T21:14:56.859Z,960.10
2018-09-19T21:17:23.172Z,960.13
2018-09-19T21:19:49.504Z,960.13
2018-09-19T21:22:15.960Z,960.19
2018-09-19T21:24:42.154Z,960.20
2018-09-19T21:27:08.498Z,960.14
2018-09-19T21:29:34.810Z,960.15
2018-09-19T21:32:01.167Z,960.15
2018-09-19T21:34:27.553Z,960.17
2018-09-19T21:36:53.814Z,960.17
2018-09-19T21:39:20.204Z,960.18
2018-09-19T21:41:46.513Z,960.19
2018-09-19T21:44:12.824Z,960.17
2018-09-19T21:46:39.211Z,960.18
2018-09-19T21:49:05.595Z,960.29
2018-09-19T21:51:31.883Z,960.23
2018-09-19T21:53:58.211Z,960.20
2018-09-19T21:56:24.532Z,960.19
2018-09-19T21:58:50.855Z,960.19
2018-09-19T22:01:17.181Z,960.17
2018-09-19T22:03:43.499Z,960.17
2018-09-19T22:06:09.816Z,960.15
2018-09-19T22:08:36.137Z,960.17
2018-09-19T22:11:02.458Z,960.16
2018-09-19T22:13:28.771Z,960.09
2018-09-19T22:15:55.101Z,960.09
2018-09-19T22:18:21.421Z,960.17
2018-09-19T22:20:47.750Z,960.12
2018-09-19T22:23:14.061Z,960.05
2018-09-19T22:25:40.378Z,960.06
2018-09-19T22:28:06.699Z,960.07
2018-09-19T22:30:33.019Z,960.06
2018-09-19T22:32:59.336Z,960.08
2018-09-19T22:35:25.647Z,960.00
2018-09-19T22:37:51.963Z,959.97
2018-09-19T22:40:18.275Z,959.99
2018-09-19T22:42:44.587Z,960.02
2018-09-19T22:45:10.910Z,960.04
2018-09-19T22:47:37.231Z,960.04
2018-09-19T22:50:03.540Z,960.06
2018-09-19T22:52:29.847Z,960.10
2018-09-19T22:54:56.206Z,960.10
2018-09-19T22:57:22.732Z,960.10
2018-09-19T22:59:49.057Z,960.03
2018-09-19T23:02:15.371Z,960.11
2018-09-19T23:04:41.683Z,960.04
2018-09-19T23:07:07.990Z,960.07
2018-09-19T23:09:34.305Z,960.05
2018-09-19T23:12:00.631Z,960.06
2018-09-19T23:14:26.951Z,959.99
2018-09-19T23:16:53.264Z,960.02
2018-09-19T23:19:19.585Z,959.91
2018-09-19T23:21:45.917Z,959.93
2018-09-19T23:24:12.232Z,959.93
2018-09-19T23:26:38.545Z,959.87
2018-09-19T23:29:04.863Z,959.83
2018-09-19T23:31:31.179Z,959.87
2018-09-19T23:33:57.498Z,959.79
2018-09-19T23:36:23.813Z,959.90
2018-09-19T23:38:50.127Z,959.88
2018-09-19T23:41:16.442Z,959.94
2018-09-19T23:43:42.753Z,959.80
2018-09-19T23:46:09.072Z,959.87
2018-09-19T23:48:35.384Z,959.86
2018-09-19T23:51:01.705Z,959.86
2018-09-19T23:53:28.056Z,959.92
2018-09-19T23:55:54.368Z,959.93
2018-09-19T23:58:20.680Z,959.86
